Merrimack, New Hampshire
Current Conditions -  °F | °C
As of 7:51 PM on Monday 20 Oct 2014 (Local Time) from KASH Reporting Station
Broken Clouds Broken Clouds  
Wind Chill: 52°   Ceiling: 10000
Heat Index: 52°   Visibility: 10mi
Dew Point: 36°   Wind: 0mph
Humidity: 54%   Direction: NA
Pressure: 29.99"   Gusts: NA
Location:  42.86°N, 71.49°W
Report Text: KASH 202351Z 00000KT 10SM SCT080 BKN100 11/02 A2999 RMK AO2 53006 T01110022 10138 20105 SLP406 $
Loading
Personal Weather Stations






























Interactive Weather Map
Tropical Storm Tracking
New forecast layout! Learn more

10-Day Weather Forecast

Advertisements
Track Severe Weather on mobile